Time;durP1;ratioP1;P1;durP2;ratioP2;P2;SDS_P1;SDS_P2;PMS_P1;PMS_P2;Temp;Humidity;BMP_temperature;BMP_pressure;BME280_temperature;BME280_humidity;BME280_pressure;Samples;Min_cycle;Max_cycle;Signal;HPM_P1;HPM_P2
2023/06/20 00:00:40;;;;;;;;;;;22.90;99.90;;;;;;5115116;28;20002;-73
2023/06/20 00:03:06;;;;;;;;;;;22.90;99.90;;;;;;5115021;28;20233;-74
2023/06/20 00:05:32;;;;;;;;;;;22.90;99.90;;;;;;5115249;28;19904;-73
2023/06/20 00:07:58;;;;;;;;;;;23.00;99.90;;;;;;5114558;28;19903;-74
2023/06/20 00:10:24;;;;;;;;;;;23.00;99.90;;;;;;5114795;28;19927;-73
2023/06/20 00:12:50;;;;;;;;;;;23.00;99.90;;;;;;5114731;28;19969;-73
2023/06/20 00:15:16;;;;;;;;;;;23.00;99.90;;;;;;5114580;28;19916;-73
2023/06/20 00:17:42;;;;;;;;;;;23.00;99.90;;;;;;5114754;28;20352;-73
2023/06/20 00:20:11;;;;;;;;;;;22.90;99.90;;;;;;5114704;28;19903;-73
2023/06/20 00:22:37;;;;;;;;;;;22.90;99.90;;;;;;5096162;28;20368;-73
2023/06/20 00:25:03;;;;;;;;;;;22.90;99.90;;;;;;5114903;28;19962;-73
2023/06/20 00:27:29;;;;;;;;;;;22.90;99.90;;;;;;5114548;28;20349;-73
2023/06/20 00:29:55;;;;;;;;;;;22.90;99.90;;;;;;5114416;28;19999;-73
2023/06/20 00:32:21;;;;;;;;;;;22.90;99.90;;;;;;5114351;28;20014;-73
2023/06/20 00:34:46;;;;;;;;;;;23.00;99.90;;;;;;5114411;28;19904;-73
2023/06/20 00:37:12;;;;;;;;;;;22.90;99.90;;;;;;5114207;28;19904;-74
2023/06/20 00:39:38;;;;;;;;;;;22.90;99.90;;;;;;5114561;28;20002;-73
2023/06/20 00:42:05;;;;;;;;;;;22.90;99.90;;;;;;5114233;28;19907;-73
2023/06/20 00:44:31;;;;;;;;;;;22.90;99.90;;;;;;5113973;28;19907;-74
2023/06/20 00:46:57;;;;;;;;;;;22.80;99.90;;;;;;5114158;28;19911;-74
2023/06/20 00:49:23;;;;;;;;;;;22.80;99.90;;;;;;5114134;28;19904;-73
2023/06/20 00:51:49;;;;;;;;;;;22.80;99.90;;;;;;5113872;28;19926;-73
2023/06/20 00:54:15;;;;;;;;;;;22.80;99.90;;;;;;5114160;28;19915;-73
2023/06/20 00:56:42;;;;;;;;;;;22.70;99.90;;;;;;5114568;28;20433;-72
2023/06/20 00:59:08;;;;;;;;;;;22.70;99.90;;;;;;5114080;28;20305;-73
2023/06/20 01:01:34;;;;;;;;;;;22.70;99.90;;;;;;5095530;28;20344;-73
2023/06/20 01:04:00;;;;;;;;;;;22.70;99.90;;;;;;5095659;28;19904;-73
2023/06/20 01:06:26;;;;;;;;;;;22.70;99.90;;;;;;5095605;28;19965;-73
2023/06/20 01:08:57;;;;;;;;;;;22.70;99.90;;;;;;5095386;28;20256;-74
2023/06/20 01:11:37;;;;;;;;;;;22.70;99.90;;;;;;5095576;28;19908;-73
2023/06/20 01:14:22;;;;;;;;;;;22.80;99.90;;;;;;5114067;28;20363;-73
2023/06/20 01:16:57;;;;;;;;;;;22.80;99.90;;;;;;5113833;28;19911;-74
2023/06/20 01:19:35;;;;;;;;;;;22.80;99.90;;;;;;5113413;28;20398;-72
2023/06/20 01:22:04;;;;;;;;;;;22.80;99.80;;;;;;5113680;28;19915;-73
2023/06/20 01:24:36;;;;;;;;;;;22.80;99.50;;;;;;5114259;28;20340;-74
2023/06/20 01:27:15;;;;;;;;;;;22.80;99.50;;;;;;5113869;28;19914;-73
2023/06/20 01:29:46;;;;;;;;;;;22.80;99.30;;;;;;5113517;28;19903;-73
2023/06/20 01:32:16;;;;;;;;;;;22.70;99.20;;;;;;5113495;28;19960;-73
2023/06/20 01:34:48;;;;;;;;;;;22.70;98.90;;;;;;5114113;28;19904;-74
2023/06/20 01:37:16;;;;;;;;;;;22.70;98.80;;;;;;5113399;28;19904;-73
2023/06/20 01:39:44;;;;;;;;;;;22.70;99.10;;;;;;5113484;28;20061;-73
2023/06/20 01:42:11;;;;;;;;;;;22.70;99.00;;;;;;5113900;28;19968;-73
2023/06/20 01:44:37;;;;;;;;;;;22.70;98.80;;;;;;5113494;28;19949;-73
2023/06/20 01:47:05;;;;;;;;;;;22.70;98.50;;;;;;5113444;28;19908;-73
2023/06/20 01:49:31;;;;;;;;;;;22.70;98.60;;;;;;5113368;28;20401;-73
2023/06/20 01:51:59;;;;;;;;;;;22.60;98.70;;;;;;5113180;28;19904;-73
2023/06/20 01:54:27;;;;;;;;;;;22.60;98.80;;;;;;5113761;28;19957;-73
2023/06/20 01:56:54;;;;;;;;;;;22.60;98.60;;;;;;5113608;28;19991;-74
2023/06/20 01:59:20;;;;;;;;;;;22.50;98.50;;;;;;5113273;28;19910;-73
2023/06/20 02:01:47;;;;;;;;;;;22.50;98.70;;;;;;5113781;28;20309;-73
2023/06/20 02:04:14;;;;;;;;;;;22.60;98.30;;;;;;5113204;28;19903;-75
2023/06/20 02:06:40;;;;;;;;;;;22.50;98.20;;;;;;5113214;28;19903;-73
2023/06/20 02:09:07;;;;;;;;;;;22.50;98.10;;;;;;5112921;28;19911;-73
2023/06/20 02:11:34;;;;;;;;;;;22.50;98.00;;;;;;5113121;28;19927;-73
2023/06/20 02:14:00;;;;;;;;;;;22.40;97.90;;;;;;5112786;28;19964;-73
2023/06/20 02:16:27;;;;;;;;;;;22.40;97.80;;;;;;5113626;28;19911;-73
2023/06/20 02:18:53;;;;;;;;;;;22.40;97.60;;;;;;5112958;28;19910;-72
2023/06/20 02:21:22;;;;;;;;;;;22.40;98.00;;;;;;5113046;28;19986;-73
2023/06/20 02:23:52;;;;;;;;;;;22.30;97.60;;;;;;5112839;28;20236;-73
2023/06/20 02:26:19;;;;;;;;;;;22.20;97.90;;;;;;5113392;28;19908;-73
2023/06/20 02:28:46;;;;;;;;;;;22.20;97.60;;;;;;5112973;28;19910;-72
2023/06/20 02:31:24;;;;;;;;;;;22.20;97.60;;;;;;5113741;28;19973;-72
2023/06/20 02:33:53;;;;;;;;;;;22.20;97.60;;;;;;5116504;28;19912;-73
2023/06/20 02:36:25;;;;;;;;;;;22.10;97.80;;;;;;5116598;28;19926;-73
2023/06/20 02:38:52;;;;;;;;;;;22.10;98.10;;;;;;5116546;28;19904;-73
2023/06/20 02:41:19;;;;;;;;;;;22.10;98.30;;;;;;5117051;28;20348;-73
2023/06/20 02:43:45;;;;;;;;;;;22.10;98.40;;;;;;5116470;28;19903;-73
2023/06/20 02:46:17;;;;;;;;;;;22.10;98.40;;;;;;5116530;28;19915;-73
2023/06/20 02:48:57;;;;;;;;;;;22.10;98.50;;;;;;5116679;28;19961;-73
2023/06/20 02:51:26;;;;;;;;;;;22.00;98.40;;;;;;5116640;28;19910;-72
2023/06/20 02:53:58;;;;;;;;;;;22.00;98.40;;;;;;5116112;28;19912;-73
2023/06/20 02:56:25;;;;;;;;;;;21.90;98.40;;;;;;5116247;28;19903;-72
2023/06/20 02:58:52;;;;;;;;;;;22.00;98.40;;;;;;5116691;28;20260;-73
2023/06/20 03:01:20;;;;;;;;;;;22.00;98.60;;;;;;5115906;28;19903;-72
2023/06/20 03:03:47;;;;;;;;;;;22.10;98.90;;;;;;5115856;28;20306;-72
2023/06/20 03:06:16;;;;;;;;;;;22.00;99.00;;;;;;5116319;28;19933;-73
2023/06/20 03:08:43;;;;;;;;;;;22.00;99.10;;;;;;5115939;28;20368;-72
2023/06/20 03:11:09;;;;;;;;;;;21.90;99.50;;;;;;5115715;28;19903;-73
2023/06/20 03:13:35;;;;;;;;;;;21.90;99.90;;;;;;5115622;28;19956;-73
2023/06/20 03:16:01;;;;;;;;;;;21.90;99.90;;;;;;5097274;28;19911;-72
2023/06/20 03:18:29;;;;;;;;;;;21.90;99.90;;;;;;5115860;28;19904;-72
2023/06/20 03:20:55;;;;;;;;;;;21.80;99.90;;;;;;5115498;28;19904;-72
2023/06/20 03:23:21;;;;;;;;;;;21.80;99.90;;;;;;5097014;28;19911;-72
2023/06/20 03:25:46;;;;;;;;;;;21.80;99.90;;;;;;5115629;28;19912;-72
2023/06/20 03:28:12;;;;;;;;;;;21.70;99.90;;;;;;5115357;28;19926;-72
2023/06/20 03:30:38;;;;;;;;;;;21.80;99.90;;;;;;5115790;28;20263;-73
2023/06/20 03:33:04;;;;;;;;;;;21.80;99.90;;;;;;5096949;28;19919;-72
2023/06/20 03:35:30;;;;;;;;;;;21.80;99.90;;;;;;5115239;28;19908;-72
2023/06/20 03:37:56;;;;;;;;;;;21.80;99.90;;;;;;5096772;28;19903;-72
2023/06/20 03:40:22;;;;;;;;;;;21.90;99.90;;;;;;5115584;28;19907;-73
2023/06/20 03:42:49;;;;;;;;;;;21.80;99.90;;;;;;5114701;28;19939;-72
2023/06/20 03:45:15;;;;;;;;;;;21.80;99.90;;;;;;5115549;28;19903;-72
2023/06/20 03:47:40;;;;;;;;;;;21.80;99.90;;;;;;5115056;28;19956;-73
2023/06/20 03:50:06;;;;;;;;;;;21.80;99.90;;;;;;5096737;28;20371;-74
2023/06/20 03:52:32;;;;;;;;;;;21.90;99.90;;;;;;5114751;28;19907;-72
2023/06/20 03:54:58;;;;;;;;;;;21.90;99.90;;;;;;5115535;28;19904;-73
2023/06/20 03:57:24;;;;;;;;;;;21.90;99.90;;;;;;5115109;28;19904;-72
2023/06/20 03:59:49;;;;;;;;;;;21.90;99.90;;;;;;5114769;28;19941;-73
2023/06/20 04:02:15;;;;;;;;;;;21.90;99.90;;;;;;5096388;28;20359;-73
2023/06/20 04:04:43;;;;;;;;;;;21.90;99.90;;;;;;5115211;28;20093;-72
2023/06/20 04:07:10;;;;;;;;;;;21.90;99.90;;;;;;5114699;28;19904;-73
2023/06/20 04:09:35;;;;;;;;;;;21.90;99.90;;;;;;5114535;28;20356;-73
2023/06/20 04:12:01;;;;;;;;;;;22.00;99.90;;;;;;5095985;28;19908;-72
2023/06/20 04:14:27;;;;;;;;;;;22.10;99.90;;;;;;5114572;28;19968;-72
2023/06/20 04:16:53;;;;;;;;;;;22.10;99.90;;;;;;5114680;28;19925;-72
2023/06/20 04:19:19;;;;;;;;;;;22.20;99.80;;;;;;5114366;28;19906;-72
2023/06/20 04:21:44;;;;;;;;;;;22.30;99.50;;;;;;5114338;28;19946;-73
2023/06/20 04:24:11;;;;;;;;;;;22.50;99.10;;;;;;5114198;28;20326;-72
2023/06/20 04:26:36;;;;;;;;;;;22.50;99.00;;;;;;5114277;28;20288;-73
2023/06/20 04:29:02;;;;;;;;;;;22.60;98.90;;;;;;5114222;28;19939;-73
2023/06/20 04:31:29;;;;;;;;;;;22.60;98.90;;;;;;5095775;28;19911;-74
2023/06/20 04:33:57;;;;;;;;;;;22.70;98.60;;;;;;5095819;28;19912;-72
2023/06/20 04:36:23;;;;;;;;;;;22.80;98.10;;;;;;5114201;28;19924;-73
2023/06/20 04:38:49;;;;;;;;;;;22.90;97.70;;;;;;5095762;28;19959;-73
2023/06/20 04:41:14;;;;;;;;;;;22.90;97.30;;;;;;5114260;28;19970;-73
2023/06/20 04:43:44;;;;;;;;;;;23.00;97.00;;;;;;5095783;28;19904;-73
2023/06/20 04:46:13;;;;;;;;;;;23.00;96.90;;;;;;5114131;28;20097;-73
2023/06/20 04:48:39;;;;;;;;;;;23.00;96.80;;;;;;5114056;28;19908;-73
2023/06/20 04:51:08;;;;;;;;;;;23.10;96.80;;;;;;5113954;28;20380;-74
2023/06/20 04:53:34;;;;;;;;;;;23.20;96.60;;;;;;5095445;28;20325;-73
2023/06/20 04:56:00;;;;;;;;;;;23.20;96.60;;;;;;5094558;28;19903;-73
2023/06/20 04:58:28;;;;;;;;;;;23.30;96.50;;;;;;5113787;28;19911;-74
2023/06/20 05:00:57;;;;;;;;;;;23.40;96.50;;;;;;5095338;28;19943;-73
2023/06/20 05:03:23;;;;;;;;;;;23.80;96.40;;;;;;5114149;28;19910;-74
2023/06/20 05:05:49;;;;;;;;;;;24.40;96.00;;;;;;5113622;28;20352;-73
2023/06/20 05:08:15;;;;;;;;;;;24.80;95.50;;;;;;5113427;28;19933;-73
2023/06/20 05:10:41;;;;;;;;;;;24.70;95.30;;;;;;5113628;28;19927;-73
2023/06/20 05:13:06;;;;;;;;;;;25.10;95.60;;;;;;5113436;28;20228;-73
2023/06/20 05:15:32;;;;;;;;;;;25.60;95.30;;;;;;5113289;28;19977;-74
2023/06/20 05:17:58;;;;;;;;;;;25.60;95.30;;;;;;5113456;28;19907;-74
2023/06/20 05:20:24;;;;;;;;;;;25.90;95.10;;;;;;5113155;28;19904;-73
2023/06/20 05:22:50;;;;;;;;;;;25.70;94.70;;;;;;5112658;28;19998;-72
2023/06/20 05:25:16;;;;;;;;;;;25.70;94.40;;;;;;5112827;28;19939;-73
2023/06/20 05:27:42;;;;;;;;;;;25.80;94.50;;;;;;5113413;28;19922;-73
2023/06/20 05:30:12;;;;;;;;;;;25.90;94.80;;;;;;5112936;28;20002;-73
2023/06/20 05:32:37;;;;;;;;;;;26.10;94.90;;;;;;5094602;28;19911;-73
2023/06/20 05:35:05;;;;;;;;;;;26.60;94.60;;;;;;5113284;28;19922;-74
2023/06/20 05:37:31;;;;;;;;;;;26.80;94.30;;;;;;5112516;28;19911;-74
2023/06/20 05:39:57;;;;;;;;;;;27.20;94.30;;;;;;5113339;28;19941;-74
2023/06/20 05:42:22;;;;;;;;;;;27.40;94.20;;;;;;5112692;28;19904;-74
2023/06/20 05:44:48;;;;;;;;;;;27.90;94.00;;;;;;5112868;28;20281;-74
2023/06/20 05:47:17;;;;;;;;;;;27.50;93.90;;;;;;5112871;28;20335;-74
2023/06/20 05:49:47;;;;;;;;;;;27.80;93.70;;;;;;5112779;28;19908;-73
2023/06/20 05:52:13;;;;;;;;;;;27.90;93.30;;;;;;5094155;28;19911;-73
2023/06/20 05:54:41;;;;;;;;;;;28.10;93.20;;;;;;5112987;28;19911;-74
2023/06/20 05:57:07;;;;;;;;;;;28.20;93.40;;;;;;5112904;28;19915;-73
2023/06/20 05:59:34;;;;;;;;;;;28.80;93.10;;;;;;5112845;28;19904;-74
2023/06/20 06:02:00;;;;;;;;;;;28.10;93.60;;;;;;5112560;28;19958;-74
2023/06/20 06:04:26;;;;;;;;;;;28.40;93.50;;;;;;5094271;28;19991;-73
2023/06/20 06:06:52;;;;;;;;;;;28.50;93.30;;;;;;5095762;28;19961;-73
2023/06/20 06:09:18;;;;;;;;;;;28.70;93.20;;;;;;5116514;28;19910;-73
2023/06/20 06:11:45;;;;;;;;;;;28.80;93.70;;;;;;5116550;28;19910;-73
2023/06/20 06:14:11;;;;;;;;;;;29.60;93.20;;;;;;5116112;28;19926;-73
2023/06/20 06:16:37;;;;;;;;;;;30.20;92.90;;;;;;5116316;28;20309;-72
2023/06/20 06:19:04;;;;;;;;;;;30.10;92.80;;;;;;5116434;28;19953;-72
2023/06/20 06:21:30;;;;;;;;;;;30.40;92.40;;;;;;5116510;28;20244;-73
2023/06/20 06:23:55;;;;;;;;;;;30.20;92.50;;;;;;5116345;28;20404;-73
2023/06/20 06:26:21;;;;;;;;;;;30.70;92.20;;;;;;5116063;28;19910;-73
2023/06/20 06:28:47;;;;;;;;;;;31.30;91.80;;;;;;5116216;28;19904;-72
2023/06/20 06:31:15;;;;;;;;;;;31.60;91.50;;;;;;5115731;28;20011;-73
2023/06/20 06:33:41;;;;;;;;;;;32.00;91.20;;;;;;5116431;28;19912;-73
2023/06/20 06:36:08;;;;;;;;;;;32.40;91.00;;;;;;5116352;28;19904;-73
2023/06/20 06:38:34;;;;;;;;;;;33.30;90.40;;;;;;5116226;28;20374;-72
2023/06/20 06:41:00;;;;;;;;;;;33.50;88.90;;;;;;5116241;28;19919;-73
2023/06/20 06:43:26;;;;;;;;;;;34.10;85.20;;;;;;5131834;27;19979;-73
2023/06/20 06:45:52;;;;;;;;;;;34.40;85.00;;;;;;5116349;28;20351;-73
2023/06/20 06:48:18;;;;;;;;;;;34.20;84.20;;;;;;5116268;28;20000;-73
2023/06/20 06:50:43;;;;;;;;;;;33.50;82.30;;;;;;5116029;28;19973;-74
2023/06/20 06:53:12;;;;;;;;;;;34.30;82.80;;;;;;5115732;28;20317;-74
2023/06/20 06:55:44;;;;;;;;;;;34.70;82.40;;;;;;5097333;28;19907;-73
2023/06/20 06:58:09;;;;;;;;;;;34.20;81.40;;;;;;5116379;28;19956;-73
2023/06/20 07:00:35;;;;;;;;;;;35.30;81.20;;;;;;5116027;28;19908;-73
2023/06/20 07:03:01;;;;;;;;;;;35.90;78.40;;;;;;5116137;28;19903;-73
2023/06/20 07:05:27;;;;;;;;;;;37.10;76.30;;;;;;5115488;28;19910;-74
2023/06/20 07:07:53;;;;;;;;;;;36.90;74.60;;;;;;5116028;28;20361;-74
2023/06/20 07:10:19;;;;;;;;;;;38.20;75.20;;;;;;5116267;28;20259;-74
2023/06/20 07:12:44;;;;;;;;;;;38.80;75.60;;;;;;5115623;28;19907;-72
2023/06/20 07:15:10;;;;;;;;;;;38.40;73.80;;;;;;5115331;28;19959;-73
2023/06/20 07:17:36;;;;;;;;;;;38.50;73.10;;;;;;5114730;28;19903;-73
2023/06/20 07:20:07;;;;;;;;;;;37.70;73.20;;;;;;5115165;28;20374;-74
2023/06/20 07:22:33;;;;;;;;;;;37.60;74.10;;;;;;5115508;28;19911;-73
2023/06/20 07:24:59;;;;;;;;;;;35.90;73.30;;;;;;5115986;28;19904;-74
2023/06/20 07:27:25;;;;;;;;;;;35.80;74.60;;;;;;5115325;28;19910;-73
2023/06/20 07:29:51;;;;;;;;;;;35.70;75.10;;;;;;5115301;28;19957;-74
2023/06/20 07:32:18;;;;;;;;;;;34.90;75.30;;;;;;5114936;28;19912;-73
2023/06/20 07:34:44;;;;;;;;;;;34.40;75.20;;;;;;5115312;28;19910;-73
2023/06/20 07:37:10;;;;;;;;;;;34.30;74.80;;;;;;5115203;28;19904;-73
2023/06/20 07:39:40;;;;;;;;;;;34.00;75.40;;;;;;5114894;28;19929;-73
2023/06/20 07:42:06;;;;;;;;;;;34.30;74.00;;;;;;5096423;28;19938;-73
2023/06/20 07:44:32;;;;;;;;;;;33.80;74.70;;;;;;5115213;28;19931;-73
2023/06/20 07:46:58;;;;;;;;;;;33.90;74.80;;;;;;5096438;28;20355;-74
2023/06/20 07:49:24;;;;;;;;;;;34.50;73.60;;;;;;5114950;28;20003;-74
2023/06/20 07:51:50;;;;;;;;;;;35.00;73.00;;;;;;5114862;28;20317;-75
2023/06/20 07:54:15;;;;;;;;;;;35.20;71.80;;;;;;5096169;28;19931;-73
2023/06/20 07:56:41;;;;;;;;;;;35.40;71.50;;;;;;5095803;28;19903;-74
2023/06/20 07:59:07;;;;;;;;;;;35.40;70.60;;;;;;5115237;28;19904;-74
2023/06/20 08:01:33;;;;;;;;;;;35.20;70.10;;;;;;5114662;28;19911;-74
2023/06/20 08:03:59;;;;;;;;;;;35.20;70.00;;;;;;5096057;28;19911;-73
2023/06/20 08:06:24;;;;;;;;;;;35.30;70.40;;;;;;5114467;28;19907;-74
2023/06/20 08:08:50;;;;;;;;;;;35.50;70.80;;;;;;5114196;28;19904;-73
2023/06/20 08:11:19;;;;;;;;;;;35.50;70.20;;;;;;5114275;28;20010;-73
2023/06/20 08:13:45;;;;;;;;;;;35.50;70.00;;;;;;5113998;28;20270;-73
2023/06/20 08:16:11;;;;;;;;;;;35.40;69.50;;;;;;5114656;28;19961;-73
2023/06/20 08:18:37;;;;;;;;;;;34.90;69.20;;;;;;5114030;28;19943;-75
2023/06/20 08:21:02;;;;;;;;;;;34.20;70.20;;;;;;5114307;28;19908;-73
2023/06/20 08:23:28;;;;;;;;;;;33.60;70.80;;;;;;5113940;28;19911;-74
2023/06/20 08:25:54;;;;;;;;;;;33.80;71.60;;;;;;5114130;28;19907;-72
2023/06/20 08:28:24;;;;;;;;;;;34.00;73.30;;;;;;5114079;28;19904;-73
2023/06/20 08:30:50;;;;;;;;;;;33.90;71.10;;;;;;5095529;28;19908;-72
2023/06/20 08:33:15;;;;;;;;;;;34.40;72.00;;;;;;5113900;28;20002;-72
2023/06/20 08:35:41;;;;;;;;;;;34.80;70.30;;;;;;5113904;28;19969;-72
2023/06/20 08:38:09;;;;;;;;;;;34.60;71.80;;;;;;5095147;28;19956;-73
2023/06/20 08:40:35;;;;;;;;;;;34.50;72.20;;;;;;5113776;28;20364;-73
2023/06/20 08:43:01;;;;;;;;;;;34.40;72.00;;;;;;5114315;28;19903;-73
2023/06/20 08:45:28;;;;;;;;;;;34.30;73.00;;;;;;5113686;28;19923;-74
2023/06/20 08:48:03;;;;;;;;;;;34.40;73.50;;;;;;5113495;28;19987;-72
2023/06/20 08:50:28;;;;;;;;;;;34.50;73.30;;;;;;5113232;28;19911;-73
2023/06/20 08:52:59;;;;;;;;;;;34.40;72.10;;;;;;5112721;28;19911;-72
2023/06/20 08:55:25;;;;;;;;;;;34.00;72.40;;;;;;5113360;28;19954;-74
2023/06/20 08:57:51;;;;;;;;;;;33.90;73.60;;;;;;5095021;28;19951;-73
2023/06/20 09:00:19;;;;;;;;;;;33.80;73.60;;;;;;5095005;28;20040;-72
2023/06/20 09:02:48;;;;;;;;;;;33.60;72.20;;;;;;5113518;28;19990;-72
2023/06/20 09:05:14;;;;;;;;;;;33.50;73.20;;;;;;5113372;28;19994;-74
2023/06/20 09:07:41;;;;;;;;;;;33.60;73.80;;;;;;5112966;28;19987;-73
2023/06/20 09:10:11;;;;;;;;;;;33.30;72.80;;;;;;5113221;28;20343;-73
2023/06/20 09:12:47;;;;;;;;;;;33.50;72.60;;;;;;5112912;28;19907;-73
2023/06/20 09:15:14;;;;;;;;;;;33.10;73.20;;;;;;5112741;28;19927;-73
2023/06/20 09:17:41;;;;;;;;;;;33.10;73.20;;;;;;5113050;28;19987;-73
2023/06/20 09:20:07;;;;;;;;;;;33.40;72.90;;;;;;5112990;28;19904;-73
2023/06/20 09:22:33;;;;;;;;;;;33.30;71.60;;;;;;5112691;28;19908;-73
2023/06/20 09:25:01;;;;;;;;;;;33.10;72.70;;;;;;5113113;28;19960;-73
2023/06/20 09:27:27;;;;;;;;;;;33.30;72.60;;;;;;5113217;28;19953;-73
2023/06/20 09:29:56;;;;;;;;;;;33.20;72.20;;;;;;5112988;28;20247;-72
2023/06/20 09:32:22;;;;;;;;;;;32.80;70.80;;;;;;5112808;28;19911;-74
2023/06/20 09:34:49;;;;;;;;;;;32.80;72.60;;;;;;5112750;28;19903;-73
2023/06/20 09:37:16;;;;;;;;;;;32.60;73.20;;;;;;5112715;28;19911;-73
2023/06/20 09:39:42;;;;;;;;;;;32.60;72.10;;;;;;5112733;28;19992;-73
2023/06/20 09:42:12;;;;;;;;;;;32.40;74.10;;;;;;5118498;28;19961;-74
2023/06/20 09:44:39;;;;;;;;;;;32.30;74.00;;;;;;5101938;28;20328;-74
2023/06/20 09:47:05;;;;;;;;;;;32.60;73.40;;;;;;5119743;28;19908;-73
2023/06/20 09:49:33;;;;;;;;;;;32.40;74.40;;;;;;5119813;28;19904;-74
2023/06/20 09:52:07;;;;;;;;;;;32.40;74.30;;;;;;5119335;28;19904;-73
2023/06/20 09:54:44;;;;;;;;;;;32.60;74.70;;;;;;5119438;28;19911;-73
2023/06/20 09:57:14;;;;;;;;;;;31.90;73.70;;;;;;5120072;28;19990;-73
2023/06/20 09:59:41;;;;;;;;;;;31.80;73.80;;;;;;5119740;28;19968;-73
2023/06/20 10:02:09;;;;;;;;;;;31.60;74.00;;;;;;5119448;28;19995;-74
2023/06/20 10:04:42;;;;;;;;;;;31.40;75.30;;;;;;5119384;28;19908;-73
2023/06/20 10:07:10;;;;;;;;;;;31.60;75.20;;;;;;5119316;28;19904;-73
2023/06/20 10:09:36;;;;;;;;;;;31.60;73.20;;;;;;5118982;28;19904;-73
2023/06/20 10:12:02;;;;;;;;;;;31.40;72.90;;;;;;5119183;28;20355;-73
2023/06/20 10:14:28;;;;;;;;;;;31.40;72.70;;;;;;5100443;28;20137;-75
2023/06/20 10:16:54;;;;;;;;;;;31.50;74.70;;;;;;5119590;28;19911;-73
2023/06/20 10:19:20;;;;;;;;;;;31.70;74.10;;;;;;5119379;28;19903;-73
2023/06/20 10:21:52;;;;;;;;;;;31.70;74.40;;;;;;5119379;28;19964;-73
2023/06/20 10:24:17;;;;;;;;;;;31.80;74.00;;;;;;5119257;28;20697;-73
2023/06/20 10:26:44;;;;;;;;;;;31.50;76.80;;;;;;5119786;28;19907;-73
2023/06/20 10:29:10;;;;;;;;;;;31.60;75.10;;;;;;5100971;28;20305;-73
2023/06/20 10:31:55;;;;;;;;;;;31.70;74.00;;;;;;5119258;28;19998;-73
2023/06/20 10:34:47;;;;;;;;;;;31.80;72.80;;;;;;5119341;28;20359;-73
2023/06/20 10:37:15;;;;;;;;;;;31.60;73.70;;;;;;5117647;28;19908;-73
2023/06/20 10:40:01;;;;;;;;;;;31.60;76.20;;;;;;5119070;28;19923;-75
2023/06/20 10:42:44;;;;;;;;;;;31.30;78.10;;;;;;5118840;28;19904;-73
2023/06/20 10:45:28;;;;;;;;;;;31.30;77.80;;;;;;5119869;28;19953;-72
2023/06/20 10:47:55;;;;;;;;;;;31.00;78.50;;;;;;5119412;28;19949;-73
2023/06/20 10:50:21;;;;;;;;;;;30.90;78.00;;;;;;5119595;28;19911;-73
2023/06/20 10:52:47;;;;;;;;;;;30.80;77.20;;;;;;5117885;28;19955;-73
2023/06/20 10:55:14;;;;;;;;;;;30.90;78.00;;;;;;5116084;28;19946;-73
2023/06/20 10:57:44;;;;;;;;;;;30.90;78.00;;;;;;5115901;28;19984;-74
2023/06/20 11:00:13;;;;;;;;;;;30.60;79.00;;;;;;5115734;28;20040;-74
2023/06/20 11:02:39;;;;;;;;;;;30.60;78.40;;;;;;5115650;28;19904;-74
2023/06/20 11:05:06;;;;;;;;;;;30.80;76.00;;;;;;5097569;28;19912;-74
2023/06/20 11:07:31;;;;;;;;;;;30.80;76.00;;;;;;5115672;28;19904;-74
2023/06/20 11:09:57;;;;;;;;;;;30.80;76.40;;;;;;5096855;28;19922;-74
2023/06/20 11:12:23;;;;;;;;;;;30.90;75.90;;;;;;5115284;28;19912;-74
2023/06/20 11:14:49;;;;;;;;;;;31.20;76.10;;;;;;5115556;28;19976;-74
2023/06/20 11:17:15;;;;;;;;;;;31.30;75.80;;;;;;5096991;28;19948;-74
2023/06/20 11:19:41;;;;;;;;;;;31.20;75.20;;;;;;5115157;28;20206;-74
2023/06/20 11:22:07;;;;;;;;;;;31.30;75.90;;;;;;5115340;28;20352;-73
2023/06/20 11:24:35;;;;;;;;;;;31.00;74.90;;;;;;5115333;28;19929;-73
2023/06/20 11:27:11;;;;;;;;;;;30.90;76.60;;;;;;5115439;28;20010;-74
2023/06/20 11:29:37;;;;;;;;;;;30.90;77.10;;;;;;5115267;28;19949;-73
2023/06/20 11:32:10;;;;;;;;;;;30.90;76.10;;;;;;5096878;28;19938;-74
2023/06/20 11:34:54;;;;;;;;;;;31.00;76.50;;;;;;5114985;28;19920;-73
2023/06/20 11:37:23;;;;;;;;;;;31.00;77.00;;;;;;5115193;28;19972;-73
2023/06/20 11:39:50;;;;;;;;;;;30.70;76.60;;;;;;5115080;28;19903;-73
2023/06/20 11:42:16;;;;;;;;;;;30.90;74.20;;;;;;5115652;28;19904;-73
2023/06/20 11:44:42;;;;;;;;;;;31.00;74.50;;;;;;5114887;28;19947;-73
2023/06/20 11:47:08;;;;;;;;;;;30.80;76.30;;;;;;5114964;28;19937;-73
2023/06/20 11:49:34;;;;;;;;;;;30.60;74.70;;;;;;5114718;28;19914;-72
2023/06/20 11:52:00;;;;;;;;;;;30.50;73.60;;;;;;5114667;28;19904;-73
2023/06/20 11:54:26;;;;;;;;;;;30.70;76.70;;;;;;5114460;28;20359;-72
2023/06/20 11:56:52;;;;;;;;;;;30.70;79.40;;;;;;5114769;28;19914;-73
2023/06/20 11:59:25;;;;;;;;;;;30.60;79.10;;;;;;5115053;28;20378;-73
2023/06/20 12:01:51;;;;;;;;;;;30.60;79.00;;;;;;5114667;28;20382;-73
2023/06/20 12:04:20;;;;;;;;;;;30.60;80.60;;;;;;5114109;28;19939;-73
2023/06/20 12:06:52;;;;;;;;;;;30.90;81.50;;;;;;5114581;28;20233;-73
2023/06/20 12:09:19;;;;;;;;;;;30.60;83.60;;;;;;5114502;28;19966;-73
2023/06/20 12:11:55;;;;;;;;;;;30.50;84.20;;;;;;5114527;28;20013;-73
2023/06/20 12:14:24;;;;;;;;;;;30.60;85.90;;;;;;5114303;28;19916;-74
2023/06/20 12:16:53;;;;;;;;;;;30.40;85.90;;;;;;5115027;28;19992;-74
2023/06/20 12:19:19;;;;;;;;;;;30.60;87.30;;;;;;5114376;28;19988;-73
2023/06/20 12:21:45;;;;;;;;;;;30.50;87.80;;;;;;5114360;28;19990;-75
2023/06/20 12:24:15;;;;;;;;;;;30.30;88.10;;;;;;5114166;28;19950;-73
2023/06/20 12:26:42;;;;;;;;;;;30.40;89.00;;;;;;5095863;28;19904;-73
2023/06/20 12:29:08;;;;;;;;;;;30.50;87.80;;;;;;5114313;28;19919;-74
2023/06/20 12:31:34;;;;;;;;;;;30.40;90.20;;;;;;5114057;28;20219;-73
2023/06/20 12:34:00;;;;;;;;;;;30.70;90.00;;;;;;5095747;28;20017;-73
2023/06/20 12:36:26;;;;;;;;;;;30.80;86.30;;;;;;5095520;28;20017;-73
2023/06/20 12:38:51;;;;;;;;;;;30.70;87.10;;;;;;5095473;28;19999;-72
2023/06/20 12:41:17;;;;;;;;;;;30.80;88.00;;;;;;5113945;28;20010;-73
2023/06/20 12:43:44;;;;;;;;;;;30.70;87.70;;;;;;5113769;28;19907;-72
2023/06/20 12:46:10;;;;;;;;;;;30.80;87.10;;;;;;5114435;28;19903;-73
2023/06/20 12:48:36;;;;;;;;;;;30.90;87.30;;;;;;5113684;28;19956;-73
2023/06/20 12:51:01;;;;;;;;;;;30.80;87.90;;;;;;5114481;28;19949;-72
2023/06/20 12:53:28;;;;;;;;;;;30.30;87.70;;;;;;5095067;28;20325;-74
2023/06/20 12:55:57;;;;;;;;;;;30.10;90.10;;;;;;5113650;28;19915;-73
2023/06/20 12:58:23;;;;;;;;;;;30.00;90.90;;;;;;5113410;28;19998;-73
2023/06/20 13:00:49;;;;;;;;;;;30.30;90.20;;;;;;5113655;28;20350;-72
2023/06/20 13:03:15;;;;;;;;;;;30.30;91.00;;;;;;5113509;28;19928;-73
2023/06/20 13:05:41;;;;;;;;;;;30.40;90.80;;;;;;5113734;28;20276;-75
2023/06/20 13:08:08;;;;;;;;;;;30.50;90.30;;;;;;5094882;28;20064;-76
2023/06/20 13:10:34;;;;;;;;;;;30.30;90.10;;;;;;5113769;28;19911;-71
2023/06/20 13:13:00;;;;;;;;;;;30.30;90.60;;;;;;5112979;28;19915;-72
2023/06/20 13:15:29;;;;;;;;;;;30.10;91.10;;;;;;5112271;28;19996;-72
2023/06/20 13:17:55;;;;;;;;;;;30.10;89.90;;;;;;5112751;28;19904;-71
2023/06/20 13:20:23;;;;;;;;;;;30.10;90.80;;;;;;5113147;28;19904;-72
2023/06/20 13:22:50;;;;;;;;;;;30.10;90.40;;;;;;5113034;28;19949;-72
2023/06/20 13:25:15;;;;;;;;;;;30.10;90.90;;;;;;5112812;28;20363;-72
2023/06/20 13:27:42;;;;;;;;;;;30.10;90.50;;;;;;5113529;28;19994;-73
2023/06/20 13:30:08;;;;;;;;;;;30.10;90.50;;;;;;5112958;28;19990;-72
2023/06/20 13:32:36;;;;;;;;;;;29.90;90.20;;;;;;5112797;28;20267;-72
2023/06/20 13:35:03;;;;;;;;;;;30.10;90.60;;;;;;5112968;28;19915;-71
2023/06/20 13:37:29;;;;;;;;;;;30.20;90.30;;;;;;5112725;28;19949;-72
2023/06/20 13:39:55;;;;;;;;;;;30.00;88.60;;;;;;5112506;28;20328;-72
2023/06/20 13:42:21;;;;;;;;;;;30.10;88.30;;;;;;5112808;28;20348;-72
2023/06/20 13:44:47;;;;;;;;;;;29.90;89.70;;;;;;5112612;28;19915;-72
2023/06/20 13:47:12;;;;;;;;;;;29.90;89.30;;;;;;5112834;28;20277;-72
2023/06/20 13:49:38;;;;;;;;;;;30.00;89.70;;;;;;5112716;28;19956;-73
2023/06/20 13:52:04;;;;;;;;;;;29.90;90.00;;;;;;5113104;28;19908;-73
2023/06/20 13:54:30;;;;;;;;;;;29.90;89.40;;;;;;5112376;28;19916;-72
2023/06/20 13:56:56;;;;;;;;;;;30.10;89.80;;;;;;5112234;28;19908;-72
2023/06/20 13:59:23;;;;;;;;;;;30.20;87.30;;;;;;5112958;28;20300;-72
2023/06/20 14:01:50;;;;;;;;;;;30.20;89.40;;;;;;5094391;28;20263;-72
2023/06/20 14:04:16;;;;;;;;;;;30.20;88.50;;;;;;5113082;28;19911;-73
2023/06/20 14:06:41;;;;;;;;;;;30.20;87.10;;;;;;5112805;28;19908;-72
2023/06/20 14:09:07;;;;;;;;;;;30.20;87.60;;;;;;5112455;28;19990;-72
2023/06/20 14:11:33;;;;;;;;;;;30.00;89.10;;;;;;5113100;28;20002;-72
2023/06/20 14:13:59;;;;;;;;;;;30.10;90.20;;;;;;5112266;28;19922;-73
2023/06/20 14:16:25;;;;;;;;;;;30.30;87.90;;;;;;5113097;28;19957;-72